Latest Weather Observations for West Wyalong

IDN60801

Issued at 3:22 pm EST Saturday 2 July 2022 (issued every 10 minutes, with the page automatically refreshed every 10 minutes)

About weather observations | Map of weather stations | Latest weather observations for NSW | Other Formats
Station Details ID: 050017 Name: WEST WYALONG AIRPORT AWS Lat: -33.94 Lon: 147.20 Height: 257.0 m
Data from the previous 72 hours. | See also: Recent months at West Wyalong
Date/Time
EST
Temp
°C
App
Temp
°C
Dew
Point
°C
Rel
Hum
%
Delta-T
°C
Wind Press
QNH
hPa
Press
MSL
hPa
Rain since
9am
mm
Dir  Spd
km/h
Gust
km/h
Spd
kts
Gust
kts
02/03:00pm 9.2 5.4 7.5 89 0.8 SSW 17 20 9 11 1023.3 1023.7 3.4
02/02:30pm 9.3 5.8 7.4 88 0.9 SSW 15 20 8 11 1023.4 1023.8 2.2
02/02:00pm 9.7 7.0 7.5 86 1.1 S 11 17 6 9 1023.4 1023.8 0.8
02/01:30pm 9.7 5.8 7.3 85 1.2 S 17 22 9 12 1023.3 1023.7 0.4
02/01:00pm 10.7 6.5 8.3 85 1.2 S 20 26 11 14 1023.6 1024.0 0.2
02/12:30pm 10.6 6.7 8.5 87 1.0 S 19 24 10 13 1023.9 1024.3 0.2
02/12:00pm 10.4 6.5 8.5 88 0.9 S 19 24 10 13 1024.2 1024.7 0.2
02/11:30am 10.0 5.8 8.1 88 0.9 S 20 28 11 15 1024.7 1025.2 0.2
02/11:00am 9.5 5.4 7.8 89 0.8 S 19 24 10 13 1024.9 1025.4 0.2
02/10:30am 9.6 5.9 7.9 89 0.8 S 17 22 9 12 1025.2 1025.6 0.2
02/10:00am 9.2 5.4 7.6 90 0.8 S 17 24 9 13 1025.2 1025.6 0.2
02/09:30am 9.1 4.3 7.5 90 0.8 SSE 22 37 12 20 1025.3 1025.7 0.0
02/09:00am 8.9 4.5 7.4 90 0.7 SSE 20 28 11 15 1025.3 1025.7 8.4
02/08:30am 8.0 4.4 6.6 91 0.7 SSW 15 22 8 12 1025.2 1025.6 8.2
02/08:00am 7.6 3.9 6.2 91 0.6 S 15 19 8 10 1025.2 1025.6 8.2
02/07:30am 7.6 4.3 6.2 91 0.6 S 13 17 7 9 1025.4 1025.8 8.2
02/07:00am 7.6 3.5 6.2 91 0.6 S 17 20 9 11 1024.9 1025.4 8.2
02/06:30am 7.5 3.4 6.1 91 0.6 S 17 22 9 12 1024.4 1024.9 8.2
02/06:00am 7.4 2.9 6.0 91 0.6 S 19 24 10 13 1024.3 1024.8 7.6
02/05:30am 7.5 2.8 6.1 91 0.6 SSE 20 26 11 14 1024.4 1024.9 6.2
02/05:00am 7.6 3.1 6.2 91 0.6 S 19 24 10 13 1024.4 1024.9 4.6
02/04:30am 7.8 3.3 6.3 90 0.7 SSE 19 24 10 13 1024.4 1024.9 3.2
02/04:00am 8.1 3.7 6.6 90 0.7 S 19 26 10 14 1024.5 1025.0 3.0
02/03:30am 8.0 4.0 6.5 90 0.7 S 17 22 9 12 1024.3 1024.8 3.0
02/03:00am 8.0 4.0 6.5 90 0.7 S 17 26 9 14 1024.4 1024.9 3.0
02/02:30am 8.1 4.1 6.6 90 0.7 S 17 24 9 13 1024.6 1025.1 2.8
02/02:00am 8.1 4.1 6.6 90 0.7 S 17 22 9 12 1024.6 1025.1 2.6
02/01:30am 8.2 3.8 6.7 90 0.7 S 19 28 10 15 1024.9 1025.4 2.6
02/01:00am 7.9 3.5 6.4 90 0.7 S 19 26 10 14 1025.0 1025.5 2.2
02/12:30am 7.9 3.8 6.4 90 0.7 S 17 22 9 12 1025.3 1025.7 1.6
02/12:00am 7.9 3.8 6.2 89 0.8 S 17 20 9 11 1025.6 1026.0 1.6
 
Date/Time
EST
Temp
°C
App
Temp
°C
Dew
Point
°C
Rel
Hum
%
Delta-T
°C
Wind Press
QNH
hPa
Press
MSL
hPa
Rain since
9am
mm
Dir  Spd
km/h
Gust
km/h
Spd
kts
Gust
kts
01/11:30pm 7.8 3.7 6.1 89 0.8 S 17 22 9 12 1025.7 1026.1 1.4
01/11:00pm 7.6 3.4 5.9 89 0.8 S 17 22 9 12 1025.8 1026.2 1.2
01/10:30pm 7.5 3.3 5.6 88 0.9 SSW 17 20 9 11 1025.9 1026.3 1.2
01/10:00pm 7.6 3.8 5.6 87 0.9 SSW 15 20 8 11 1026.2 1026.6 1.0
01/09:30pm 7.6 3.8 5.6 87 0.9 S 15 20 8 11 1026.3 1026.7 0.8
01/09:00pm 7.7 3.1 5.7 87 0.9 S 19 24 10 13 1026.5 1026.9 0.6
01/08:30pm 7.8 3.6 5.6 86 1.0 S 17 22 9 12 1026.8 1027.2 0.6
01/08:00pm 7.8 3.5 5.4 85 1.1 S 17 22 9 12 1026.9 1027.3 0.6
01/07:30pm 7.9 3.3 5.4 84 1.1 SSE 19 24 10 13 1026.8 1027.2 0.4
01/07:00pm 8.5 3.4 5.8 83 1.2 SSE 22 32 12 17 1026.4 1026.8 0.2
01/06:30pm 8.1 3.8 5.4 83 1.2 SSE 17 26 9 14 1026.1 1026.5 0.2
01/06:00pm 8.3 3.4 5.2 81 1.4 SSE 20 33 11 18 1026.0 1026.4 0.0
01/05:30pm 8.5 3.6 5.1 79 1.5 SSE 20 28 11 15 1025.9 1026.3 0.0
01/05:00pm 8.9 2.9 5.1 77 1.7 SSE 26 32 14 17 1025.6 1026.0 0.0
01/04:30pm 9.4 5.1 5.4 76 1.8 S 17 26 9 14 1025.3 1025.7 0.0
01/04:00pm 9.6 5.0 5.4 75 1.9 SSE 19 26 10 14 1024.9 1025.4 0.0
01/03:30pm 9.8 5.0 5.4 74 2.0 S 20 26 11 14 1024.9 1025.4 0.0
01/03:00pm 10.4 5.8 5.8 73 2.1 SSE 19 24 10 13 1025.0 1025.5 0.0
01/02:30pm 10.6 5.5 6.0 73 2.2 SE 22 30 12 16 1024.9 1025.4 0.0
01/02:00pm 11.2 6.6 6.5 73 2.2 SE 20 30 11 16 1024.8 1025.3 0.0
01/01:30pm 10.9 5.5 6.5 74 2.1 SE 24 33 13 18 1024.9 1025.4 0.0
01/01:00pm 10.8 5.5 6.6 75 2.0 SE 24 33 13 18 1025.3 1025.7 0.0
01/12:30pm 10.9 5.6 6.8 76 2.0 SE 24 32 13 17 1025.7 1026.1 0.0
01/12:00pm 11.2 6.1 7.5 78 1.8 ESE 24 35 13 19 1025.9 1026.3 0.0
01/11:30am 10.4 5.5 7.1 80 1.6 SE 22 30 12 16 1026.1 1026.5 0.0
01/11:00am 10.4 5.6 7.5 82 1.4 SE 22 28 12 15 1026.3 1026.7 0.0
01/10:30am 10.9 6.0 8.5 85 1.2 SSE 24 32 13 17 1026.3 1026.7 0.0
01/10:00am 10.2 5.6 8.1 87 1.0 SE 22 28 12 15 1025.9 1026.3 0.0
01/09:30am 9.1 6.0 7.4 89 0.8 SSE 13 20 7 11 1025.8 1026.1 0.0
01/09:00am 8.2 5.7 6.7 90 0.7 S 9 13 5 7 1025.7 1026.0 3.2
01/08:30am 6.4 3.5 4.9 90 0.7 SE 9 11 5 6 1025.3 1025.6 3.2
01/08:00am 5.3 2.6 3.6 89 0.7 SSE 7 9 4 5 1025.2 1025.5 3.2
01/07:30am 5.3 3.9 3.6 89 0.7 CALM 0 7 0 4 1025.0 1025.4 3.2
01/07:00am 6.1 3.5 4.4 89 0.7 SE 7 9 4 5 1025.3 1025.6 3.2
01/06:30am 6.9 3.7 5.2 89 0.8 SE 11 15 6 8 1025.4 1025.7 3.2
01/06:00am 7.1 4.7 5.4 89 0.8 SSE 7 13 4 7 1024.9 1025.3 3.2
01/05:30am 7.3 4.6 5.6 89 0.8 S 9 13 5 7 1024.6 1025.0 3.2
01/05:00am 7.4 4.7 5.5 88 0.9 SE 9 9 5 5 1024.2 1024.6 3.2
01/04:30am 7.6 5.3 5.7 88 0.9 SE 7 9 4 5 1024.2 1024.6 3.2
01/04:00am 7.7 5.0 5.8 88 0.9 SE 9 11 5 6 1024.2 1024.6 3.2
01/03:30am 7.6 5.5 5.6 87 0.9 E 6 11 3 6 1023.9 1024.3 3.2
01/03:00am 7.8 5.1 5.8 87 0.9 SSE 9 13 5 7 1023.8 1024.1 3.2
01/02:30am 8.2 6.5 6.0 86 1.0 ESE 4 9 2 5 1024.2 1024.6 3.2
01/02:00am 8.3 5.7 6.1 86 1.0 ENE 9 13 5 7 1024.1 1024.5 3.0
01/01:30am 8.4 6.3 6.0 85 1.1 SSE 6 9 3 5 1024.4 1024.8 2.8
01/01:00am 8.9 7.0 6.5 85 1.1 W 6 9 3 5 1024.7 1025.1 1.8
01/12:30am 8.8 5.9 6.3 84 1.2 W 11 17 6 9 1024.6 1025.0 1.0
01/12:00am 9.2 7.3 6.6 84 1.2 SSE 6 9 3 5 1024.4 1024.8 0.4
 
Date/Time
EST
Temp
°C
App
Temp
°C
Dew
Point
°C
Rel
Hum
%
Delta-T
°C
Wind Press
QNH
hPa
Press
MSL
hPa
Rain since
9am
mm
Dir  Spd
km/h
Gust
km/h
Spd
kts
Gust
kts
30/11:30pm 9.1 6.6 6.4 83 1.3 SW 9 13 5 7 1024.6 1025.0 0.4
30/11:00pm 9.3 6.8 6.6 83 1.3 SE 9 9 5 5 1024.2 1024.6 0.4
30/10:30pm 9.3 6.4 6.4 82 1.4 S 11 15 6 8 1024.0 1024.4 0.4
30/10:00pm 10.0 6.9 7.1 82 1.4 E 13 19 7 10 1024.0 1024.4 0.4
30/09:30pm 9.4 6.9 6.5 82 1.4 SE 9 13 5 7 1023.9 1024.3 0.4
30/09:00pm 9.5 7.9 6.4 81 1.5 SSW 4 7 2 4 1024.1 1024.5 0.2
30/08:30pm 9.9 9.1 6.6 80 1.6 CALM 0 0 0 0 1024.0 1024.4 0.2
30/08:00pm 10.0 9.2 6.7 80 1.6 CALM 0 0 0 0 1023.8 1024.1 0.0
30/07:30pm 10.1 9.3 6.6 79 1.7 CALM 0 0 0 0 1023.7 1024.0 0.0
30/07:00pm 9.8 8.9 6.2 78 1.7 CALM 0 0 0 0 1023.5 1023.8 0.0
30/06:30pm 9.7 8.7 5.7 76 1.9 CALM 0 0 0 0 1023.1 1023.4 0.0
30/06:00pm 9.6 8.5 5.2 74 2.0 CALM 0 0 0 0 1022.8 1023.1 0.0
30/05:30pm 11.0 10.1 6.2 72 2.3 CALM 0 0 0 0 1022.6 1022.9 0.0
30/05:00pm 12.1 10.2 6.8 70 2.6 E 6 7 3 4 1022.5 1022.8 0.0
30/04:30pm 13.0 10.7 7.5 69 2.7 NE 9 11 5 6 1022.5 1022.8 0.0
30/04:00pm 14.1 11.3 8.5 69 2.8 NE 13 17 7 9 1022.3 1022.6 0.0
30/03:30pm 15.0 12.5 9.6 70 2.8 NE 13 17 7 9 1022.3 1022.6 0.0
30/03:00pm 14.3 11.6 8.9 70 2.8 ENE 13 20 7 11 1022.4 1022.7 0.0
30/02:30pm 14.8 12.3 9.6 71 2.7 ENE 13 19 7 10 1022.4 1022.7 0.0
30/02:00pm 14.2 11.6 9.4 73 2.5 NE 13 17 7 9 1022.6 1022.9 0.0
30/01:30pm 14.5 12.1 10.1 75 2.3 NE 13 17 7 9 1022.8 1023.1 0.0
30/01:00pm 13.8 11.8 10.0 78 2.0 NNE 11 15 6 8 1023.3 1023.6 0.0
30/12:30pm 12.9 11.2 9.7 81 1.7 NE 9 13 5 7 1023.6 1023.9 0.0
30/12:00pm 12.5 10.4 9.7 83 1.4 NE 11 15 6 8 1023.8 1024.1 0.0
30/11:30am 12.0 10.3 9.7 86 1.2 NNE 9 15 5 8 1024.2 1024.6 0.0
30/11:00am 10.8 9.4 8.9 88 0.9 ENE 6 9 3 5 1024.3 1024.7 0.0
30/10:30am 9.8 8.6 8.1 89 0.8 ESE 4 7 2 4 1024.6 1025.0 0.0
30/10:00am 8.7 8.1 7.2 90 0.7 CALM 0 0 0 0 1024.5 1024.9 0.0
30/09:30am 7.7 6.8 6.2 90 0.7 CALM 0 0 0 0 1024.5 1024.9 0.0
30/09:00am 7.2 6.2 5.5 89 0.8 CALM 0 0 0 0 1024.6 1025.0 0.0
30/08:30am 6.6 5.5 4.9 89 0.8 CALM 0 0 0 0 1024.5 1024.9 0.0
30/08:00am 6.3 5.1 4.6 89 0.7 CALM 0 0 0 0 1024.1 1024.5 0.0
30/07:30am 6.4 5.2 4.7 89 0.7 CALM 0 0 0 0 1023.9 1024.3 0.0
30/07:00am 6.5 4.0 4.8 89 0.7 ENE 7 9 4 5 1023.7 1024.0 0.0
30/06:30am 6.3 5.1 4.5 88 0.8 CALM 0 0 0 0 1023.4 1023.7 0.0
30/06:00am 6.1 4.8 4.3 88 0.8 CALM 0 0 0 0 1023.2 1023.5 0.0
30/05:30am 5.6 4.2 3.8 88 0.8 CALM 0 0 0 0 1022.9 1023.2 0.0
30/05:00am 5.6 4.2 3.6 87 0.8 CALM 0 0 0 0 1022.6 1022.9 0.0
30/04:30am 5.4 4.0 3.4 87 0.8 CALM 0 0 0 0 1022.3 1022.6 0.0
30/04:00am 5.2 3.7 3.2 87 0.8 CALM 0 0 0 0 1022.5 1022.8 0.0
30/03:30am 5.1 3.6 3.0 86 0.9 CALM 0 0 0 0 1022.6 1022.9 0.0
30/03:00am 5.0 3.5 2.9 86 0.9 CALM 0 0 0 0 1022.4 1022.7 0.0
30/02:30am 5.5 4.0 3.2 85 1.0 CALM 0 0 0 0 1022.5 1022.8 0.0
30/02:00am 5.9 4.5 3.6 85 1.0 CALM 0 0 0 0 1022.7 1023.0 0.0
30/01:30am 6.1 4.7 3.6 84 1.1 CALM 0 0 0 0 1022.5 1022.8 0.0
30/01:00am 6.2 3.5 3.5 83 1.1 NNE 7 9 4 5 1022.4 1022.7 0.0
30/12:30am 5.5 3.9 2.7 82 1.2 CALM 0 0 0 0 1022.4 1022.7 0.0
30/12:00am 5.7 4.2 2.9 82 1.2 CALM 0 0 0 0 1022.2 1022.5 0.0
 
Date/Time
EST
Temp
°C
App
Temp
°C
Dew
Point
°C
Rel
Hum
%
Delta-T
°C
Wind Press
QNH
hPa
Press
MSL
hPa
Rain since
9am
mm
Dir  Spd
km/h
Gust
km/h
Spd
kts
Gust
kts
29/11:30pm 6.1 4.6 3.1 81 1.3 CALM 0 0 0 0 1022.7 1023.0 0.0
29/11:00pm 6.3 4.8 3.1 80 1.3 CALM 0 0 0 0 1022.9 1023.2 0.0
29/10:30pm 6.2 3.3 2.8 79 1.4 WNW 7 7 4 4 1023.2 1023.5 0.0
29/10:00pm 6.8 4.0 3.1 77 1.6 NNW 7 9 4 5 1023.0 1023.3 0.0
29/09:30pm 8.2 5.6 4.4 77 1.7 NW 7 9 4 5 1023.1 1023.4 0.0
29/09:00pm 8.8 6.0 5.0 77 1.7 NNW 9 13 5 7 1023.3 1023.6 0.0
29/08:30pm 8.7 5.8 4.7 76 1.8 NNW 9 11 5 6 1023.1 1023.4 0.0
29/08:00pm 8.7 5.8 4.5 75 1.9 N 9 11 5 6 1022.8 1023.1 0.0
29/07:30pm 8.8 6.2 4.4 74 2.0 WNW 7 11 4 6 1023.3 1023.6 0.0
29/07:00pm 9.3 6.8 4.7 73 2.1 NNW 7 9 4 5 1023.1 1023.4 0.0
29/06:30pm 9.6 6.7 4.6 71 2.3 NNW 9 11 5 6 1023.0 1023.3 0.0
29/06:00pm 9.9 7.4 4.7 70 2.4 N 7 9 4 5 1023.0 1023.3 0.0
29/05:30pm 10.3 7.8 4.7 68 2.6 NNW 7 9 4 5 1022.8 1023.1 0.0
29/05:00pm 11.3 8.5 5.2 66 2.8 NNW 9 11 5 6 1022.9 1023.2 0.0
29/04:30pm 12.2 9.5 5.8 65 3.0 N 9 13 5 7 1022.6 1022.9 0.0
29/04:00pm 12.7 9.7 6.1 64 3.1 N 11 17 6 9 1022.7 1023.0 0.0
29/03:30pm 13.5 11.0 6.6 63 3.4 N 9 13 5 7 1022.9 1023.2 0.0

Other formats

Comma delimited format used in spreadsheet applications
http://www.bom.gov.au/fwo/IDN60801/IDN60801.95709.axf

JavaScript Object Notation format (JSON) in row-major order
http://www.bom.gov.au/fwo/IDN60801/IDN60801.95709.json

Data quality

Most of these data are generated automatically and are frequently updated. Quality checks on data are not normally performed. It is possible for incorrect values to appear. Refer to information at About Latest Weather Observations and please check the disclaimer before using these data.